Time;durP1;ratioP1;P1;durP2;ratioP2;P2;SDS_P1;SDS_P2;PMS_P1;PMS_P2;Temp;Humidity;BMP_temperature;BMP_pressure;BME280_temperature;BME280_humidity;BME280_pressure;Samples;Min_cycle;Max_cycle;Signal;HPM_P1;HPM_P2
2021/10/04 00:00:13;;;;;;;12.52;8.68;;;12.30;99.90;;;;;;4992361;28;20113;-68
2021/10/04 00:02:39;;;;;;;15.07;8.15;;;12.20;99.90;;;;;;4992477;28;20466;-67
2021/10/04 00:05:06;;;;;;;15.10;8.60;;;12.20;99.90;;;;;;4974849;28;20018;-67
2021/10/04 00:07:32;;;;;;;15.00;8.50;;;12.20;99.90;;;;;;4992481;28;20034;-67
2021/10/04 00:09:57;;;;;;;14.35;9.00;;;12.20;99.90;;;;;;4992143;28;20426;-67
2021/10/04 00:12:23;;;;;;;14.13;8.45;;;12.30;99.90;;;;;;4992299;28;20023;-67
2021/10/04 00:14:49;;;;;;;14.32;8.07;;;12.30;99.90;;;;;;4990791;28;20037;-67
2021/10/04 00:17:14;;;;;;;13.07;8.35;;;12.30;99.90;;;;;;4992089;28;20109;-67
2021/10/04 00:19:40;;;;;;;12.15;9.10;;;12.30;99.90;;;;;;4992043;28;20101;-67
2021/10/04 00:22:07;;;;;;;15.80;9.90;;;12.20;99.90;;;;;;4992100;28;20050;-67
2021/10/04 00:24:32;;;;;;;13.13;9.10;;;12.20;99.90;;;;;;4991866;28;20029;-67
2021/10/04 00:26:58;;;;;;;13.98;9.25;;;12.20;99.90;;;;;;4992326;28;20061;-67
2021/10/04 00:29:24;;;;;;;13.68;8.88;;;12.30;99.90;;;;;;4992240;28;20367;-67
2021/10/04 00:31:50;;;;;;;14.80;9.15;;;12.20;99.90;;;;;;4991870;28;20034;-67
2021/10/04 00:34:16;;;;;;;16.40;9.13;;;12.20;99.90;;;;;;4992212;28;20105;-67
2021/10/04 00:36:42;;;;;;;11.50;8.93;;;12.20;99.90;;;;;;4992003;28;20415;-67
2021/10/04 00:39:07;;;;;;;12.57;9.10;;;12.20;99.90;;;;;;4990959;28;20022;-67
2021/10/04 00:41:34;;;;;;;17.70;9.23;;;12.20;99.90;;;;;;4991739;28;20101;-67
2021/10/04 00:44:00;;;;;;;13.48;9.32;;;12.20;99.90;;;;;;4991783;28;20072;-67
2021/10/04 00:46:27;;;;;;;18.00;9.35;;;12.20;99.90;;;;;;4991904;28;20031;-67
2021/10/04 00:48:53;;;;;;;13.75;9.23;;;12.20;99.90;;;;;;4991945;28;20026;-67
2021/10/04 00:51:20;;;;;;;12.18;8.73;;;12.20;99.90;;;;;;4991891;28;20049;-67
2021/10/04 00:53:51;;;;;;;15.55;9.65;;;12.20;99.90;;;;;;4991248;28;20061;-67
2021/10/04 00:56:18;;;;;;;13.23;9.68;;;12.20;99.90;;;;;;4991838;28;20042;-67
2021/10/04 00:58:44;;;;;;;14.20;9.02;;;12.20;99.90;;;;;;4991293;28;20030;-67
2021/10/04 01:01:10;;;;;;;14.35;9.65;;;12.20;99.90;;;;;;4991530;28;20032;-67
2021/10/04 01:03:37;;;;;;;15.32;10.13;;;12.20;99.90;;;;;;4991593;28;20432;-67
2021/10/04 01:06:03;;;;;;;16.02;9.38;;;12.20;99.90;;;;;;4991346;28;20031;-67
2021/10/04 01:08:29;;;;;;;14.60;10.00;;;12.20;99.90;;;;;;4991517;28;20375;-67
2021/10/04 01:10:55;;;;;;;12.55;9.40;;;12.20;99.90;;;;;;4990653;28;20040;-67
2021/10/04 01:13:21;;;;;;;13.35;9.25;;;12.20;99.90;;;;;;4991416;28;20491;-66
2021/10/04 01:15:47;;;;;;;14.27;9.23;;;12.20;99.90;;;;;;4991221;28;20023;-66
2021/10/04 01:18:13;;;;;;;13.93;9.50;;;12.30;99.90;;;;;;4991338;28;20027;-66
2021/10/04 01:20:39;;;;;;;17.17;8.95;;;12.20;99.90;;;;;;4991103;28;20038;-66
2021/10/04 01:23:05;;;;;;;12.00;8.95;;;12.20;99.90;;;;;;4991349;28;20105;-68
2021/10/04 01:25:31;;;;;;;15.55;10.27;;;12.20;99.90;;;;;;4990868;28;20196;-67
2021/10/04 01:27:57;;;;;;;15.20;9.80;;;12.20;99.90;;;;;;4991131;28;20057;-67
2021/10/04 01:30:25;;;;;;;19.95;9.95;;;12.30;99.90;;;;;;4991130;28;20103;-67
2021/10/04 01:32:52;;;;;;;13.98;9.38;;;12.30;99.90;;;;;;4990942;28;20083;-67
2021/10/04 01:35:18;;;;;;;14.15;9.35;;;12.30;99.90;;;;;;4990912;28;20401;-67
2021/10/04 01:37:44;;;;;;;14.27;9.40;;;12.20;99.90;;;;;;4989659;28;20109;-67
2021/10/04 01:40:11;;;;;;;14.75;9.50;;;12.30;99.90;;;;;;4990890;28;20022;-67
2021/10/04 01:42:38;;;;;;;13.40;9.23;;;12.30;99.90;;;;;;4991070;28;20030;-67
2021/10/04 01:45:07;;;;;;;12.98;9.18;;;12.30;99.90;;;;;;4990930;28;20039;-67
2021/10/04 01:47:33;;;;;;;14.23;9.10;;;12.20;99.90;;;;;;4990960;28;20084;-67
2021/10/04 01:49:58;;;;;;;11.80;9.02;;;12.30;99.90;;;;;;4990668;28;20477;-66
2021/10/04 01:52:24;;;;;;;15.68;9.05;;;12.20;99.90;;;;;;4990800;28;20045;-66
2021/10/04 01:54:50;;;;;;;15.35;9.27;;;12.30;99.90;;;;;;4990338;28;20042;-66
2021/10/04 01:57:16;;;;;;;15.55;9.50;;;12.30;99.90;;;;;;4990857;28;20027;-66
2021/10/04 01:59:41;;;;;;;15.40;9.40;;;12.20;99.90;;;;;;4990707;28;20470;-66
2021/10/04 02:02:07;;;;;;;16.42;9.60;;;12.20;99.90;;;;;;4990900;28;20026;-66
2021/10/04 02:04:33;;;;;;;16.67;9.60;;;12.20;99.90;;;;;;4990440;28;20175;-66
2021/10/04 02:06:59;;;;;;;14.10;8.65;;;12.20;99.90;;;;;;4990449;28;20071;-66
2021/10/04 02:09:25;;;;;;;14.73;10.35;;;12.20;99.90;;;;;;4990747;28;20019;-66
2021/10/04 02:11:51;;;;;;;15.10;9.50;;;12.20;99.90;;;;;;4990316;28;20084;-66
2021/10/04 02:14:17;;;;;;;12.73;9.32;;;12.20;99.90;;;;;;4990380;28;20022;-66
2021/10/04 02:16:42;;;;;;;14.80;8.35;;;12.20;99.90;;;;;;4990175;28;20489;-66
2021/10/04 02:19:08;;;;;;;18.10;9.60;;;12.20;99.90;;;;;;4990375;28;20026;-66
2021/10/04 02:21:34;;;;;;;16.50;9.23;;;12.20;99.90;;;;;;4990133;28;20018;-66
2021/10/04 02:53:04;;;;;;;12.88;8.52;;;12.30;99.90;;;;;;4989695;28;20079;-65
2021/10/04 02:55:30;;;;;;;13.43;8.95;;;12.30;99.90;;;;;;4989582;28;20157;-65
2021/10/04 02:57:55;;;;;;;11.55;7.93;;;12.30;99.90;;;;;;4990045;28;20067;-65
2021/10/04 03:00:22;;;;;;;16.58;9.02;;;12.30;99.90;;;;;;4989875;28;20019;-66
2021/10/04 03:02:47;;;;;;;13.10;8.73;;;12.30;99.90;;;;;;4994158;28;20105;-66
2021/10/04 03:05:13;;;;;;;14.95;8.15;;;12.30;99.90;;;;;;4978616;28;20168;-66
2021/10/04 03:07:39;;;;;;;14.95;8.60;;;12.30;99.90;;;;;;4996194;28;20045;-66
2021/10/04 03:10:06;;;;;;;11.82;8.63;;;12.30;99.90;;;;;;4996261;28;20019;-66
2021/10/04 03:12:31;;;;;;;13.45;8.52;;;12.30;99.90;;;;;;4996451;28;20050;-66
2021/10/04 03:14:59;;;;;;;13.25;8.27;;;12.20;99.90;;;;;;4996039;28;20495;-66
2021/10/04 03:17:25;;;;;;;14.35;8.35;;;12.20;99.90;;;;;;4996169;28;20030;-66
2021/10/04 03:19:51;;;;;;;15.70;9.00;;;12.20;99.90;;;;;;4996297;28;20101;-66
2021/10/04 03:22:16;;;;;;;13.57;8.25;;;12.30;99.90;;;;;;4995824;28;20474;-66
2021/10/04 03:24:42;;;;;;;16.95;8.68;;;12.30;99.90;;;;;;4996209;28;20026;-66
2021/10/04 03:27:08;;;;;;;13.13;8.38;;;12.30;99.90;;;;;;4996002;28;20034;-66
2021/10/04 03:29:34;;;;;;;18.85;8.52;;;12.20;99.90;;;;;;4996092;28;20103;-66
2021/10/04 03:32:00;;;;;;;17.33;9.27;;;12.20;99.90;;;;;;4995980;28;20456;-66
2021/10/04 03:34:26;;;;;;;18.48;7.35;;;12.20;99.90;;;;;;4996029;28;20508;-66
2021/10/04 03:36:53;;;;;;;11.82;8.15;;;12.20;99.90;;;;;;4995864;28;20104;-66
2021/10/04 03:39:19;;;;;;;16.92;8.65;;;12.30;99.90;;;;;;4995568;28;20030;-66
2021/10/04 03:41:45;;;;;;;11.10;7.60;;;12.20;99.90;;;;;;4995776;28;20026;-66
2021/10/04 03:44:10;;;;;;;14.32;8.38;;;12.20;99.90;;;;;;4995616;28;20028;-66
2021/10/04 03:46:36;;;;;;;14.55;8.02;;;12.20;99.90;;;;;;4995760;28;20062;-66
2021/10/04 03:49:03;;;;;;;12.88;8.13;;;12.30;99.90;;;;;;4995779;28;20032;-66
2021/10/04 03:51:29;;;;;;;17.90;8.07;;;12.30;99.90;;;;;;4995970;28;20037;-66
2021/10/04 03:53:55;;;;;;;10.65;7.35;;;12.30;99.90;;;;;;4995425;28;20070;-66
2021/10/04 03:56:22;;;;;;;17.67;7.95;;;12.30;99.90;;;;;;4995807;28;20057;-66
2021/10/04 03:58:48;;;;;;;14.13;8.55;;;12.30;99.90;;;;;;4995682;28;20430;-66
2021/10/04 04:01:14;;;;;;;13.55;7.78;;;12.30;99.90;;;;;;4995396;28;20109;-66
2021/10/04 04:03:40;;;;;;;14.98;8.30;;;12.20;99.90;;;;;;4995588;28;20058;-66
2021/10/04 04:06:06;;;;;;;11.10;7.65;;;12.30;99.90;;;;;;4995562;28;20061;-66
2021/10/04 04:08:34;;;;;;;13.43;7.40;;;12.30;99.90;;;;;;4995871;28;20386;-66
2021/10/04 04:11:00;;;;;;;11.30;7.38;;;12.30;99.90;;;;;;4995749;28;20387;-66
2021/10/04 04:13:26;;;;;;;12.93;7.97;;;12.30;99.90;;;;;;4992599;28;20088;-66
2021/10/04 04:15:52;;;;;;;11.25;7.35;;;12.30;99.90;;;;;;4992396;28;20062;-66
2021/10/04 04:18:18;;;;;;;13.07;8.00;;;12.30;99.90;;;;;;4992327;28;20446;-66
2021/10/04 04:20:44;;;;;;;14.73;7.80;;;12.30;99.90;;;;;;4992017;28;20058;-66
2021/10/04 04:23:09;;;;;;;13.25;8.07;;;12.30;99.90;;;;;;4991939;28;20035;-65
2021/10/04 04:25:35;;;;;;;16.58;7.90;;;12.30;99.90;;;;;;4992098;28;20035;-65
2021/10/04 04:28:01;;;;;;;17.80;8.35;;;12.30;99.90;;;;;;4992331;28;20054;-66
2021/10/04 04:30:27;;;;;;;14.88;7.78;;;12.30;99.90;;;;;;4992065;28;20042;-68
2021/10/04 04:32:53;;;;;;;12.73;7.45;;;12.30;99.90;;;;;;4991913;28;20026;-68
2021/10/04 04:35:19;;;;;;;11.18;7.32;;;12.30;99.90;;;;;;4991935;28;20099;-67
2021/10/04 04:37:46;;;;;;;15.63;7.85;;;12.30;99.90;;;;;;4991809;28;20083;-67
2021/10/04 04:40:15;;;;;;;13.77;7.88;;;12.30;99.90;;;;;;4991582;28;20121;-68
2021/10/04 04:42:43;;;;;;;14.00;7.65;;;12.30;99.90;;;;;;4991626;28;20606;-68
2021/10/04 04:45:11;;;;;;;15.35;7.95;;;12.30;99.90;;;;;;4991535;28;20529;-68
2021/10/04 04:47:37;;;;;;;13.07;7.32;;;12.30;99.90;;;;;;4991593;28;20037;-67
2021/10/04 04:50:05;;;;;;;18.83;7.80;;;12.30;99.90;;;;;;4991506;28;20030;-69
2021/10/04 04:52:31;;;;;;;15.55;7.70;;;12.30;99.90;;;;;;4991666;28;20057;-68
2021/10/04 04:54:57;;;;;;;13.05;7.45;;;12.30;99.90;;;;;;4991015;28;20097;-72
2021/10/04 04:57:22;;;;;;;14.68;7.55;;;12.40;99.90;;;;;;4991027;28;20038;-71
2021/10/04 04:59:48;;;;;;;13.55;7.43;;;12.40;99.90;;;;;;4991260;28;20413;-71
2021/10/04 05:02:14;;;;;;;13.80;8.10;;;12.40;99.90;;;;;;4991120;28;20053;-71
2021/10/04 05:04:40;;;;;;;18.48;7.72;;;12.40;99.90;;;;;;4991369;28;20038;-71
2021/10/04 05:07:06;;;;;;;20.25;7.90;;;12.40;99.90;;;;;;4991209;28;20041;-69
2021/10/04 05:09:32;;;;;;;13.18;7.32;;;12.40;99.90;;;;;;4991205;28;20019;-69
2021/10/04 05:11:58;;;;;;;25.83;8.15;;;12.40;99.90;;;;;;4991223;28;20173;-69
2021/10/04 05:14:24;;;;;;;14.30;7.30;;;12.40;99.90;;;;;;4990908;28;20098;-70
2021/10/04 05:16:50;;;;;;;11.95;7.45;;;12.40;99.90;;;;;;4991182;28;20019;-69
2021/10/04 05:19:15;;;;;;;12.48;8.20;;;12.40;99.90;;;;;;4991174;28;20385;-70
2021/10/04 05:21:41;;;;;;;13.60;7.10;;;12.40;99.90;;;;;;4991428;28;20558;-69
2021/10/04 05:24:07;;;;;;;15.35;7.70;;;12.40;99.90;;;;;;4990462;28;20042;-70
2021/10/04 05:26:33;;;;;;;16.33;7.53;;;12.40;99.90;;;;;;4990882;28;20070;-70
2021/10/04 05:28:59;;;;;;;14.48;7.70;;;12.40;99.90;;;;;;4989750;28;20035;-70
2021/10/04 05:31:25;;;;;;;15.10;7.53;;;12.40;99.90;;;;;;4991017;28;20027;-70
2021/10/04 05:33:50;;;;;;;13.40;7.47;;;12.40;99.90;;;;;;4991008;28;20531;-70
2021/10/04 05:36:16;;;;;;;18.75;8.35;;;12.40;99.90;;;;;;4990748;28;20030;-70
2021/10/04 05:38:42;;;;;;;14.65;7.35;;;12.40;99.90;;;;;;4990904;28;20019;-70
2021/10/04 05:41:09;;;;;;;14.35;7.88;;;12.40;99.90;;;;;;4990691;28;20482;-70
2021/10/04 05:43:35;;;;;;;21.15;8.90;;;12.40;99.90;;;;;;4990878;28;20022;-70
2021/10/04 05:46:02;;;;;;;15.57;7.75;;;12.30;99.90;;;;;;4990588;28;20038;-70
2021/10/04 05:48:28;;;;;;;19.77;7.97;;;12.30;99.90;;;;;;4990399;28;20087;-71
2021/10/04 05:50:54;;;;;;;14.45;8.00;;;12.30;99.90;;;;;;4989312;28;20367;-70
2021/10/04 05:53:20;;;;;;;12.55;7.80;;;12.30;99.90;;;;;;4990445;28;20066;-70
2021/10/04 05:55:47;;;;;;;14.00;8.70;;;12.30;99.90;;;;;;4989143;28;20070;-70
2021/10/04 05:58:13;;;;;;;15.13;8.50;;;12.30;99.90;;;;;;4990485;28;20034;-71
2021/10/04 06:00:39;;;;;;;14.20;8.10;;;12.30;99.90;;;;;;4990512;28;20022;-70
2021/10/04 06:03:05;;;;;;;9.98;7.50;;;12.30;99.90;;;;;;4990448;28;20470;-71
2021/10/04 06:05:32;;;;;;;13.35;8.40;;;12.30;99.90;;;;;;4990192;28;20035;-68
2021/10/04 06:07:58;;;;;;;11.52;7.50;;;12.20;99.90;;;;;;4990494;28;20065;-68
2021/10/04 06:10:23;;;;;;;13.73;9.00;;;12.20;99.90;;;;;;4990394;28;20054;-68
2021/10/04 06:12:50;;;;;;;13.27;7.75;;;12.20;99.90;;;;;;4990384;28;20027;-68
2021/10/04 06:15:17;;;;;;;11.90;7.88;;;12.20;99.90;;;;;;4990247;28;20046;-69
2021/10/04 06:17:43;;;;;;;14.00;8.10;;;12.10;99.90;;;;;;4990471;28;20027;-68
2021/10/04 06:20:11;;;;;;;11.57;7.35;;;12.10;99.90;;;;;;4990341;28;20031;-67
2021/10/04 06:22:38;;;;;;;16.30;7.80;;;12.10;99.90;;;;;;4990261;28;20502;-68
2021/10/04 06:25:07;;;;;;;10.25;7.32;;;12.20;99.90;;;;;;4990311;28;20092;-68
2021/10/04 06:27:33;;;;;;;13.35;8.27;;;12.10;99.90;;;;;;4990289;28;20037;-69
2021/10/04 06:30:01;;;;;;;14.68;7.70;;;12.10;99.90;;;;;;4990044;28;20029;-68
2021/10/04 06:32:26;;;;;;;15.68;9.10;;;12.10;99.90;;;;;;4989877;28;20038;-68
2021/10/04 06:34:52;;;;;;;10.25;7.65;;;12.10;99.90;;;;;;4989852;28;20029;-69
2021/10/04 06:37:18;;;;;;;10.90;7.63;;;12.10;99.90;;;;;;4987739;28;20113;-69
2021/10/04 06:39:44;;;;;;;11.25;7.53;;;12.00;99.90;;;;;;4989911;28;20022;-68
2021/10/04 06:42:09;;;;;;;11.52;7.63;;;12.00;99.90;;;;;;4989903;28;20030;-68
2021/10/04 06:44:36;;;;;;;14.13;7.38;;;12.00;99.90;;;;;;4988518;28;20026;-68
2021/10/04 06:47:02;;;;;;;13.10;8.30;;;12.20;99.90;;;;;;4989864;28;20034;-68
2021/10/04 06:49:27;;;;;;;10.68;7.45;;;12.10;99.90;;;;;;4989303;28;20547;-68
2021/10/04 06:51:53;;;;;;;10.77;7.65;;;12.10;99.90;;;;;;4989622;28;20034;-68
2021/10/04 06:54:19;;;;;;;12.50;7.40;;;12.10;99.90;;;;;;4989464;28;20042;-69
2021/10/04 06:56:44;;;;;;;10.10;7.00;;;12.00;99.90;;;;;;4989536;28;20033;-74
2021/10/04 06:59:10;;;;;;;15.38;8.38;;;12.00;99.90;;;;;;4989675;28;20508;-73
2021/10/04 07:01:37;;;;;;;11.07;7.43;;;12.00;99.90;;;;;;4989887;28;20032;-74
2021/10/04 07:04:04;;;;;;;9.30;7.10;;;11.90;99.90;;;;;;4989813;28;20037;-76
2021/10/04 07:06:30;;;;;;;10.60;7.35;;;11.90;99.90;;;;;;4989425;28;20061;-74
2021/10/04 07:08:57;;;;;;;13.20;8.00;;;12.00;99.90;;;;;;4989804;28;20493;-74
2021/10/04 07:11:22;;;;;;;11.63;7.25;;;11.90;99.90;;;;;;4989413;28;20034;-75
2021/10/04 07:13:49;;;;;;;10.18;6.95;;;11.90;99.90;;;;;;4989181;28;20075;-76
2021/10/04 07:16:18;;;;;;;10.60;7.40;;;11.90;99.90;;;;;;4989323;28;20109;-73
2021/10/04 07:18:43;;;;;;;7.90;6.35;;;12.00;99.90;;;;;;4989393;28;20014;-68
2021/10/04 07:21:10;;;;;;;15.63;7.93;;;11.90;99.90;;;;;;4989646;28;20400;-68
2021/10/04 07:23:36;;;;;;;10.77;7.50;;;11.90;99.90;;;;;;4989314;28;20034;-68
2021/10/04 07:26:03;;;;;;;10.50;6.78;;;12.00;99.90;;;;;;4989421;28;20042;-69
2021/10/04 07:28:29;;;;;;;8.93;7.53;;;11.90;99.90;;;;;;4987993;28;20030;-68
2021/10/04 07:30:56;;;;;;;9.80;7.57;;;11.90;99.90;;;;;;4989225;28;20076;-68
2021/10/04 07:33:22;;;;;;;9.25;7.18;;;11.90;99.90;;;;;;4988272;28;20027;-68
2021/10/04 07:35:50;;;;;;;10.38;7.65;;;12.00;99.90;;;;;;4989128;28;20034;-68
2021/10/04 07:38:17;;;;;;;11.93;7.80;;;12.00;99.90;;;;;;4989193;28;20052;-68
2021/10/04 07:40:43;;;;;;;11.95;7.47;;;12.00;99.90;;;;;;4989153;28;20088;-68
2021/10/04 07:43:09;;;;;;;13.52;8.13;;;12.00;99.90;;;;;;4989239;28;20527;-68
2021/10/04 07:45:35;;;;;;;11.68;7.65;;;12.00;99.90;;;;;;4988911;28;20149;-68
2021/10/04 07:48:02;;;;;;;9.57;7.10;;;12.00;99.90;;;;;;4990460;28;20034;-68
2021/10/04 07:50:27;;;;;;;10.85;6.97;;;12.00;99.90;;;;;;4992101;28;20065;-69
2021/10/04 07:52:53;;;;;;;9.73;6.85;;;12.00;99.90;;;;;;4992247;28;20054;-69
2021/10/04 07:55:19;;;;;;;8.82;5.93;;;12.00;99.90;;;;;;4990589;28;20076;-68
2021/10/04 07:57:54;;;;;;;11.80;7.05;;;12.00;99.90;;;;;;4992251;28;20030;-69
2021/10/04 08:00:21;;;;;;;12.95;6.93;;;12.10;99.90;;;;;;4991995;28;20038;-67
2021/10/04 08:02:47;;;;;;;8.32;6.30;;;12.10;99.90;;;;;;4992257;28;20023;-68
2021/10/04 08:05:14;;;;;;;9.25;5.63;;;12.10;99.90;;;;;;4992058;28;20156;-68
2021/10/04 08:07:40;;;;;;;8.98;5.22;;;12.10;99.90;;;;;;4992304;28;20087;-68
2021/10/04 08:10:08;;;;;;;11.80;6.32;;;12.00;99.90;;;;;;4992092;28;20592;-68
2021/10/04 08:12:34;;;;;;;7.40;6.10;;;12.00;99.90;;;;;;4991874;28;20105;-68
2021/10/04 08:15:00;;;;;;;8.52;5.45;;;12.00;99.90;;;;;;4991963;28;20038;-68
2021/10/04 08:17:26;;;;;;;7.15;5.90;;;12.00;99.90;;;;;;4991745;28;20026;-68
2021/10/04 08:19:52;;;;;;;7.20;5.32;;;12.00;99.90;;;;;;4992090;28;20462;-68
2021/10/04 08:22:18;;;;;;;8.02;5.93;;;12.00;99.90;;;;;;4991800;28;20039;-68
2021/10/04 08:24:44;;;;;;;8.90;5.97;;;12.00;99.90;;;;;;4992004;28;20048;-68
2021/10/04 08:27:10;;;;;;;9.57;5.95;;;12.00;99.90;;;;;;4991909;28;20059;-68
2021/10/04 08:29:36;;;;;;;9.07;5.22;;;12.00;99.90;;;;;;4991880;28;20026;-68
2021/10/04 08:32:03;;;;;;;6.28;5.30;;;12.00;99.90;;;;;;4991852;28;20087;-68
2021/10/04 08:34:29;;;;;;;9.63;5.35;;;12.00;99.90;;;;;;4991601;28;20375;-68
2021/10/04 08:36:55;;;;;;;9.10;5.95;;;12.00;99.90;;;;;;4991658;28;20049;-68
2021/10/04 08:39:20;;;;;;;8.15;5.45;;;11.90;99.90;;;;;;4991520;28;20027;-68
2021/10/04 08:41:46;;;;;;;10.65;5.10;;;12.00;99.90;;;;;;4991796;28;20033;-68
2021/10/04 08:44:13;;;;;;;6.25;4.50;;;12.00;99.90;;;;;;4991671;28;20455;-68
2021/10/04 08:46:42;;;;;;;8.60;5.57;;;11.90;99.90;;;;;;4991215;28;20042;-69
2021/10/04 08:49:09;;;;;;;8.52;5.13;;;12.00;99.90;;;;;;4991559;28;20477;-70
2021/10/04 08:51:36;;;;;;;9.25;5.45;;;12.00;99.90;;;;;;4991463;28;20034;-71
2021/10/04 08:54:05;;;;;;;7.05;5.03;;;11.90;99.90;;;;;;4991278;28;20129;-71
2021/10/04 08:56:31;;;;;;;8.25;4.68;;;11.90;99.90;;;;;;4991280;28;20067;-71
2021/10/04 08:58:57;;;;;;;7.05;4.90;;;11.90;99.90;;;;;;4990823;28;20026;-71
2021/10/04 09:01:24;;;;;;;10.88;5.32;;;11.90;99.90;;;;;;4991320;28;20125;-68
2021/10/04 09:04:01;;;;;;;7.30;4.55;;;11.90;99.90;;;;;;4991492;28;20037;-69
2021/10/04 09:06:40;;;;;;;6.72;4.43;;;11.90;99.90;;;;;;4989550;28;20030;-70
2021/10/04 09:09:11;;;;;;;6.28;4.40;;;11.90;99.90;;;;;;4991540;28;20030;-71
2021/10/04 09:11:48;;;;;;;6.35;4.38;;;11.80;99.90;;;;;;4990999;28;20034;-71
2021/10/04 09:14:16;;;;;;;5.03;4.20;;;11.80;99.90;;;;;;4991415;28;20026;-72
2021/10/04 09:16:58;;;;;;;5.35;3.90;;;11.80;99.90;;;;;;4990726;28;20026;-72
2021/10/04 09:19:32;;;;;;;8.63;3.95;;;11.80;99.90;;;;;;4990858;28;20038;-72
2021/10/04 09:22:05;;;;;;;6.85;3.85;;;11.70;99.90;;;;;;4990953;28;20030;-72
2021/10/04 09:24:31;;;;;;;6.43;3.80;;;11.80;99.90;;;;;;4982735;28;20085;-72
2021/10/04 09:26:57;;;;;;;5.07;3.50;;;11.80;99.90;;;;;;4971303;28;20039;-72
2021/10/04 09:29:25;;;;;;;5.18;3.72;;;11.80;99.90;;;;;;4971673;28;20072;-72
2021/10/04 09:31:51;;;;;;;4.78;3.72;;;11.80;99.90;;;;;;4971719;28;20054;-72
2021/10/04 09:34:21;;;;;;;4.20;3.80;;;11.80;99.90;;;;;;4971505;28;20030;-72
2021/10/04 09:36:57;;;;;;;6.55;3.80;;;11.70;99.90;;;;;;4971531;28;20023;-72
2021/10/04 09:39:23;;;;;;;6.32;3.83;;;11.80;99.90;;;;;;4971271;28;20046;-71
2021/10/04 09:42:13;;;;;;;4.07;3.30;;;11.70;99.90;;;;;;4971350;28;20658;-72
2021/10/04 09:44:55;;;;;;;6.72;4.35;;;11.70;99.90;;;;;;4971442;28;20041;-72
2021/10/04 09:47:33;;;;;;;4.10;3.70;;;11.70;99.90;;;;;;4971095;28;20039;-72
2021/10/04 09:50:10;;;;;;;8.38;3.67;;;11.70;99.90;;;;;;4971407;28;20031;-72
2021/10/04 09:52:43;;;;;;;6.70;4.07;;;11.70;99.90;;;;;;4971231;28;20029;-72
2021/10/04 09:55:35;;;;;;;6.53;4.18;;;11.70;99.90;;;;;;4971119;28;20062;-72
2021/10/04 09:58:03;;;;;;;7.28;4.10;;;11.70;99.90;;;;;;4971513;28;20119;-72
2021/10/04 10:00:50;;;;;;;9.48;4.70;;;11.70;99.90;;;;;;4970914;28;20062;-72
2021/10/04 10:03:18;;;;;;;8.95;5.18;;;11.70;99.90;;;;;;4970994;28;20379;-72
2021/10/04 10:05:53;;;;;;;6.65;4.25;;;11.70;99.90;;;;;;4970754;28;20034;-73
2021/10/04 10:08:22;;;;;;;7.43;4.47;;;11.70;99.90;;;;;;4971295;28;20038;-72
2021/10/04 10:10:50;;;;;;;6.38;4.15;;;11.70;99.90;;;;;;4970196;28;20033;-72
2021/10/04 10:13:20;;;;;;;5.82;4.32;;;11.70;99.90;;;;;;4970828;28;20050;-72
2021/10/04 10:15:56;;;;;;;6.32;4.82;;;11.70;99.90;;;;;;4970464;28;20494;-72
2021/10/04 10:18:27;;;;;;;8.13;4.70;;;11.70;99.90;;;;;;4970757;28;20034;-71
2021/10/04 10:21:05;;;;;;;4.88;3.80;;;11.70;99.90;;;;;;4970808;28;20061;-72
2021/10/04 10:24:05;;;;;;;4.88;4.15;;;11.60;99.90;;;;;;4970542;28;20070;-72
2021/10/04 10:26:39;;;;;;;7.30;4.50;;;11.70;99.90;;;;;;4970372;28;20034;-72
2021/10/04 10:29:17;;;;;;;13.35;4.55;;;11.70;99.90;;;;;;4970636;28;20026;-71
2021/10/04 10:31:57;;;;;;;5.15;3.67;;;11.70;99.90;;;;;;4970540;28;20035;-70
2021/10/04 10:34:29;;;;;;;11.23;4.95;;;11.70;99.90;;;;;;4980458;28;20023;-69
2021/10/04 10:37:18;;;;;;;4.97;3.88;;;11.70;99.90;;;;;;4988045;28;20034;-69
2021/10/04 10:39:55;;;;;;;7.28;4.20;;;11.70;99.90;;;;;;4989300;28;20049;-69
2021/10/04 10:42:21;;;;;;;7.50;4.40;;;11.70;99.90;;;;;;4988119;28;20530;-69
2021/10/04 10:44:56;;;;;;;5.30;4.15;;;11.70;99.90;;;;;;4989956;28;20030;-69
2021/10/04 10:47:34;;;;;;;5.10;3.80;;;11.70;99.90;;;;;;4989860;28;20041;-69
2021/10/04 10:50:18;;;;;;;4.95;3.50;;;11.70;99.90;;;;;;4987705;28;20084;-68
2021/10/04 10:52:54;;;;;;;6.80;4.68;;;11.70;99.90;;;;;;4970305;28;20079;-67
2021/10/04 10:55:20;;;;;;;4.93;3.95;;;11.70;99.90;;;;;;4970170;28;20047;-68
2021/10/04 10:57:49;;;;;;;7.28;4.40;;;11.70;99.90;;;;;;4970233;28;20035;-67
2021/10/04 11:00:19;;;;;;;6.20;4.07;;;11.70;99.90;;;;;;4970394;28;20026;-67
2021/10/04 11:03:01;;;;;;;;;;;11.70;99.90;;;;;;4970568;28;20030;-67
2021/10/04 11:05:39;;;;;;;6.63;4.20;;;11.70;99.90;;;;;;4968634;28;20020;-67
2021/10/04 11:08:14;;;;;;;6.80;4.88;;;11.60;99.90;;;;;;4970191;28;20042;-67
2021/10/04 11:10:52;;;;;;;6.20;4.28;;;11.60;99.90;;;;;;4968850;28;20371;-67
2021/10/04 11:13:27;;;;;;;5.40;4.38;;;11.70;99.90;;;;;;4970332;28;20027;-66
2021/10/04 11:15:55;;;;;;;7.07;3.95;;;11.70;99.90;;;;;;4968907;28;20030;-66
2021/10/04 11:18:23;;;;;;;9.68;4.72;;;11.70;99.90;;;;;;4970255;28;20019;-66
2021/10/04 11:21:00;;;;;;;8.85;4.72;;;11.70;99.90;;;;;;4970263;28;20034;-66
2021/10/04 11:23:26;;;;;;;7.00;4.47;;;11.70;99.90;;;;;;4972146;28;20030;-66
2021/10/04 11:25:54;;;;;;;8.13;4.40;;;11.70;99.90;;;;;;4973179;28;20035;-66
2021/10/04 11:28:42;;;;;;;5.28;4.22;;;11.70;99.90;;;;;;4973044;28;20037;-66
2021/10/04 11:31:10;;;;;;;7.85;4.68;;;11.70;99.90;;;;;;4973158;28;20517;-66
2021/10/04 11:33:55;;;;;;;6.15;4.55;;;11.70;99.90;;;;;;4971858;28;20083;-66
2021/10/04 11:36:25;;;;;;;6.80;4.38;;;11.70;99.90;;;;;;4973379;28;20106;-67
2021/10/04 11:38:57;;;;;;;6.63;5.40;;;11.70;99.90;;;;;;4973088;28;20575;-68
2021/10/04 11:41:42;;;;;;;7.75;4.97;;;11.70;99.90;;;;;;4972081;28;20062;-67
2021/10/04 11:44:21;;;;;;;7.38;4.95;;;11.70;99.90;;;;;;4986591;28;20029;-68
2021/10/04 11:47:03;;;;;;;8.93;4.70;;;11.90;99.90;;;;;;4978761;28;20038;-67
2021/10/04 11:49:36;;;;;;;8.57;4.90;;;12.00;99.90;;;;;;4992262;28;20444;-68
2021/10/04 11:52:05;;;;;;;7.95;5.30;;;12.10;99.90;;;;;;4992388;28;20030;-67
2021/10/04 11:54:45;;;;;;;7.63;5.40;;;12.00;99.90;;;;;;4992055;28;20402;-68
2021/10/04 11:57:32;;;;;;;8.90;5.55;;;11.90;99.90;;;;;;4992352;28;20027;-68
2021/10/04 11:59:59;;;;;;;10.98;5.68;;;11.90;99.90;;;;;;4992446;28;20474;-68
2021/10/04 12:02:27;;;;;;;10.77;5.57;;;11.90;99.90;;;;;;4992439;28;20109;-68
2021/10/04 12:05:11;;;;;;;7.53;5.28;;;11.80;99.90;;;;;;4991063;28;20436;-68
2021/10/04 12:07:37;;;;;;;8.68;5.88;;;11.80;99.90;;;;;;4990771;28;20049;-69
2021/10/04 12:10:03;;;;;;;7.13;5.22;;;11.80;99.90;;;;;;4991101;28;20023;-68
2021/10/04 12:12:36;;;;;;;10.00;6.03;;;11.80;99.90;;;;;;4990866;28;20091;-68
2021/10/04 12:15:05;;;;;;;10.93;5.90;;;11.80;99.90;;;;;;4992234;28;20026;-69
2021/10/04 12:17:38;;;;;;;9.00;5.30;;;11.80;99.90;;;;;;4990953;28;20022;-69
2021/10/04 12:20:06;;;;;;;9.77;5.80;;;11.80;99.90;;;;;;4992559;28;20087;-68
2021/10/04 12:22:34;;;;;;;8.35;5.90;;;11.90;99.90;;;;;;4991938;28;20377;-69
2021/10/04 12:25:00;;;;;;;9.95;5.63;;;11.90;99.90;;;;;;4992273;28;20129;-69
2021/10/04 12:27:26;;;;;;;8.07;5.30;;;11.90;99.90;;;;;;4991879;28;20034;-70
2021/10/04 12:29:58;;;;;;;7.22;4.65;;;11.90;99.90;;;;;;4992078;28;20023;-71
2021/10/04 12:32:37;;;;;;;8.55;4.57;;;11.80;99.90;;;;;;4991944;28;20481;-71
2021/10/04 12:35:07;;;;;;;9.40;5.03;;;11.80;99.90;;;;;;4991093;28;20022;-70
2021/10/04 12:37:40;;;;;;;7.97;5.15;;;11.80;99.90;;;;;;4991947;28;20030;-70
2021/10/04 12:40:39;;;;;;;8.02;4.72;;;11.80;99.90;;;;;;4991925;28;20026;-71
2021/10/04 12:43:05;;;;;;;9.60;5.32;;;11.80;99.90;;;;;;4991764;28;20026;-71
2021/10/04 12:45:33;;;;;;;9.52;6.03;;;11.80;99.90;;;;;;4991524;28;20034;-71
2021/10/04 12:48:04;;;;;;;7.85;4.78;;;11.80;99.90;;;;;;4991691;28;20064;-70
2021/10/04 12:50:40;;;;;;;6.82;4.80;;;11.80;99.90;;;;;;4991689;28;20067;-71
2021/10/04 12:53:18;;;;;;;7.47;5.00;;;11.80;99.90;;;;;;4991642;28;20033;-69
2021/10/04 12:55:48;;;;;;;9.13;4.95;;;11.80;99.90;;;;;;4991220;28;20054;-69
2021/10/04 12:58:14;;;;;;;5.88;4.72;;;11.80;99.90;;;;;;4991453;28;20082;-69
2021/10/04 13:00:40;;;;;;;9.20;5.30;;;11.80;99.90;;;;;;4991279;28;20039;-69
2021/10/04 13:03:06;;;;;;;6.22;4.60;;;11.80;99.90;;;;;;4991435;28;20164;-69
2021/10/04 13:05:32;;;;;;;7.70;5.32;;;11.80;99.90;;;;;;4991112;28;20501;-70
2021/10/04 13:07:57;;;;;;;6.38;4.78;;;11.80;99.90;;;;;;4991605;28;20023;-69
2021/10/04 13:10:23;;;;;;;8.90;4.97;;;11.80;99.90;;;;;;4991626;28;20026;-69
2021/10/04 13:12:57;;;;;;;10.23;5.30;;;11.80;99.90;;;;;;4991029;28;20513;-69
2021/10/04 13:15:23;;;;;;;8.50;5.40;;;11.80;99.90;;;;;;4991394;28;20037;-69